Time;durP1;ratioP1;P1;durP2;ratioP2;P2;SDS_P1;SDS_P2;PMS_P1;PMS_P2;Temp;Humidity;BMP_temperature;BMP_pressure;BME280_temperature;BME280_humidity;BME280_pressure;Samples;Min_cycle;Max_cycle;Signal;HPM_P1;HPM_P2
2021/08/14 00:00:01;;;;;;;11.60;6.60;;;;;;;19.07;72.19;97267.31;2595015;54;20433;-73
2021/08/14 00:02:32;;;;;;;7.90;5.57;;;;;;;19.05;72.84;97268.41;2596889;36;20418;-72
2021/08/14 00:05:03;;;;;;;9.03;5.70;;;;;;;18.95;72.89;97255.16;2595801;54;20427;-72
2021/08/14 00:07:33;;;;;;;15.73;7.07;;;;;;;19.03;72.49;97271.22;2595136;31;20461;-73
2021/08/14 00:10:03;;;;;;;8.03;5.87;;;;;;;18.99;72.72;97269.00;2595024;54;20410;-72
2021/08/14 00:12:32;;;;;;;11.33;5.57;;;;;;;18.93;72.98;97273.91;2595121;36;20742;-74
2021/08/14 00:15:02;;;;;;;10.67;5.80;;;;;;;18.90;72.88;97276.00;2594301;54;20437;-74
2021/08/14 00:17:33;;;;;;;12.67;6.73;;;;;;;18.86;73.27;97274.63;2594646;36;20750;-74
2021/08/14 00:20:03;;;;;;;8.77;5.70;;;;;;;18.83;73.09;97269.56;2594344;54;20985;-75
2021/08/14 00:22:33;;;;;;;10.83;7.10;;;;;;;18.82;73.32;97271.41;2595327;36;20522;-74
2021/08/14 00:25:03;;;;;;;13.63;6.57;;;;;;;18.71;73.35;97274.97;2595070;54;20434;-74
2021/08/14 00:27:33;;;;;;;11.87;7.27;;;;;;;18.50;74.17;97266.31;2597035;31;20918;-74
2021/08/14 00:30:03;;;;;;;12.77;7.30;;;;;;;18.55;74.24;97259.63;2596537;54;20949;-74
2021/08/14 00:32:34;;;;;;;10.20;6.97;;;;;;;18.57;74.23;97264.81;2596171;36;21291;-74
2021/08/14 00:35:04;;;;;;;8.77;6.80;;;;;;;18.63;73.66;97258.09;2596251;54;20414;-74
2021/08/14 00:37:34;;;;;;;11.07;7.10;;;;;;;18.59;73.63;97254.88;2596539;36;20790;-74
2021/08/14 00:40:05;;;;;;;10.60;6.20;;;;;;;18.46;74.52;97254.31;2595854;54;20426;-74
2021/08/14 00:42:35;;;;;;;8.70;5.60;;;;;;;18.42;74.84;97252.94;2595547;36;20455;-74
2021/08/14 00:45:05;;;;;;;8.63;5.80;;;;;;;18.43;74.22;97236.06;2595624;54;20403;-74
2021/08/14 00:47:36;;;;;;;12.97;5.73;;;;;;;18.44;75.00;97246.50;2595803;36;20502;-74
2021/08/14 00:50:07;;;;;;;8.80;5.90;;;;;;;18.53;74.34;97253.63;2596102;54;20419;-73
2021/08/14 00:52:37;;;;;;;10.87;6.30;;;;;;;18.53;74.41;97247.50;2596125;36;20922;-73
2021/08/14 00:55:08;;;;;;;8.80;5.30;;;;;;;18.49;74.15;97243.44;2595909;54;20943;-75
2021/08/14 00:57:38;;;;;;;12.40;5.90;;;;;;;18.32;75.08;97250.28;2594825;36;20568;-73
2021/08/14 01:00:10;;;;;;;10.40;6.40;;;;;;;18.32;75.14;97240.50;2595037;39;20771;-74
2021/08/14 01:02:41;;;;;;;9.40;5.73;;;;;;;18.24;74.90;97221.78;2594845;36;20925;-74
2021/08/14 01:05:12;;;;;;;12.63;7.53;;;;;;;18.22;75.03;97221.09;2598169;54;20988;-73
2021/08/14 01:07:42;;;;;;;9.80;5.70;;;;;;;18.25;74.90;97230.56;2596142;36;20992;-74
2021/08/14 01:10:13;;;;;;;8.20;5.20;;;;;;;18.21;74.89;97240.66;2594735;54;20941;-73
2021/08/14 01:12:43;;;;;;;8.70;6.20;;;;;;;17.98;76.02;97232.09;2602070;36;20435;-74
2021/08/14 01:15:14;;;;;;;10.17;6.30;;;;;;;18.03;75.96;97232.50;2594785;47;21006;-75
2021/08/14 01:17:46;;;;;;;10.67;6.70;;;;;;;17.77;76.78;97232.13;2595079;36;20431;-73
2021/08/14 01:20:17;;;;;;;13.87;6.60;;;;;;;18.01;76.23;97237.09;2595369;54;21175;-73
2021/08/14 01:22:46;;;;;;;9.47;6.00;;;;;;;17.79;76.49;97235.50;2596274;36;21226;-75
2021/08/14 01:25:19;;;;;;;10.27;6.23;;;;;;;17.92;76.72;97235.28;2596522;54;20403;-74
2021/08/14 01:27:50;;;;;;;14.23;6.90;;;;;;;17.70;77.28;97236.28;2597017;36;20838;-74
2021/08/14 01:30:20;;;;;;;18.23;7.10;;;;;;;17.73;77.02;97234.22;2597943;54;21190;-73
2021/08/14 01:32:52;;;;;;;12.50;6.90;;;;;;;17.65;77.11;97234.06;2595681;36;20747;-75
2021/08/14 01:35:22;;;;;;;12.40;6.37;;;;;;;17.74;76.94;97227.13;2596562;54;20927;-74
2021/08/14 01:37:52;;;;;;;14.10;6.50;;;;;;;17.72;76.35;97226.41;2596878;36;20419;-74
2021/08/14 01:40:22;;;;;;;14.33;5.63;;;;;;;17.57;77.03;97224.13;2597374;39;20788;-72
2021/08/14 01:42:53;;;;;;;9.23;6.17;;;;;;;17.61;77.45;97222.06;2596464;36;20447;-74
2021/08/14 01:45:23;;;;;;;15.03;7.23;;;;;;;17.62;77.16;97214.94;2596806;39;20524;-71
2021/08/14 01:47:53;;;;;;;9.00;6.17;;;;;;;17.71;77.03;97214.16;2615221;36;21219;-76
2021/08/14 01:50:23;;;;;;;19.20;6.50;;;;;;;17.48;78.05;97221.44;2596563;54;20886;-75
2021/08/14 01:52:55;;;;;;;11.23;6.90;;;;;;;17.56;77.56;97214.53;2596602;31;20740;-75
2021/08/14 01:55:25;;;;;;;8.20;5.80;;;;;;;17.65;77.34;97220.81;2596045;54;20550;-73
2021/08/14 01:57:56;;;;;;;12.70;7.47;;;;;;;17.43;77.86;97218.38;2597334;36;20422;-76
2021/08/14 02:00:27;;;;;;;12.63;6.93;;;;;;;17.35;78.43;97229.63;2596891;54;20525;-71
2021/08/14 02:02:57;;;;;;;14.17;6.70;;;;;;;17.18;77.94;97223.13;2597801;36;20984;-72
2021/08/14 02:05:28;;;;;;;10.40;7.00;;;;;;;16.91;78.90;97227.16;2596047;39;20888;-73
2021/08/14 02:07:58;;;;;;;23.53;6.50;;;;;;;17.12;78.09;97221.84;2597786;36;20442;-73
2021/08/14 02:10:27;;;;;;;12.07;6.47;;;;;;;17.12;77.77;97219.19;2596277;54;20391;-73
2021/08/14 02:12:58;;;;;;;29.17;6.43;;;;;;;17.23;77.21;97220.94;2597288;36;20843;-75
2021/08/14 02:15:28;;;;;;;13.93;6.10;;;;;;;17.20;77.37;97214.09;2596142;47;20435;-73
2021/08/14 02:17:58;;;;;;;10.53;6.30;;;;;;;17.25;77.77;97219.00;2596213;36;20422;-74
2021/08/14 02:20:28;;;;;;;19.90;6.30;;;;;;;17.28;77.44;97217.88;2595603;39;20772;-74
2021/08/14 02:22:58;;;;;;;9.30;6.30;;;;;;;17.25;77.58;97215.50;2595319;36;20430;-76
2021/08/14 02:25:28;;;;;;;12.87;6.67;;;;;;;17.18;77.11;97217.84;2595759;39;21042;-76
2021/08/14 02:27:59;;;;;;;14.33;6.17;;;;;;;17.13;77.53;97217.38;2595848;36;20421;-76
2021/08/14 02:30:28;;;;;;;14.87;6.60;;;;;;;17.10;78.05;97215.84;2595741;54;20394;-76
2021/08/14 02:32:58;;;;;;;7.77;5.83;;;;;;;17.12;77.87;97213.06;2597924;36;20980;-73
2021/08/14 02:35:29;;;;;;;13.50;6.13;;;;;;;17.09;77.95;97214.19;2595657;54;20982;-77
2021/08/14 02:37:58;;;;;;;7.77;5.70;;;;;;;16.97;78.11;97213.44;2595389;36;20419;-76
2021/08/14 02:40:28;;;;;;;12.83;6.90;;;;;;;16.85;78.77;97216.25;2594953;47;20426;-75
2021/08/14 02:42:59;;;;;;;11.87;6.57;;;;;;;16.87;78.58;97219.59;2596352;31;20863;-73
2021/08/14 02:45:29;;;;;;;12.80;7.17;;;;;;;16.97;77.60;97212.56;2595779;54;21033;-73
2021/08/14 02:48:00;;;;;;;15.23;6.90;;;;;;;16.87;78.18;97198.44;2595594;36;20925;-74
2021/08/14 02:50:31;;;;;;;12.03;6.60;;;;;;;16.84;78.24;97211.91;2595829;54;20937;-74
2021/08/14 02:53:00;;;;;;;14.13;6.40;;;;;;;16.82;78.61;97219.16;2595071;36;20442;-73
2021/08/14 02:55:30;;;;;;;9.17;7.10;;;;;;;16.72;78.90;97214.63;2595708;54;20930;-73
2021/08/14 02:58:02;;;;;;;17.10;6.60;;;;;;;16.69;78.69;97208.75;2596201;36;20938;-75
2021/08/14 03:00:32;;;;;;;10.77;6.20;;;;;;;16.78;78.75;97211.47;2595962;54;20450;-75
2021/08/14 03:03:02;;;;;;;11.07;6.23;;;;;;;16.57;79.07;97207.97;2594951;36;20417;-76
2021/08/14 03:05:32;;;;;;;10.00;6.30;;;;;;;16.71;78.42;97205.00;2596105;54;21005;-75
2021/08/14 03:08:02;;;;;;;10.67;6.97;;;;;;;16.74;78.19;97210.03;2595460;36;20993;-75
2021/08/14 03:10:31;;;;;;;7.20;6.00;;;;;;;16.72;78.27;97206.69;2596268;39;20804;-75
2021/08/14 03:13:03;;;;;;;9.37;6.80;;;;;;;16.72;78.08;97209.34;2595102;31;20422;-73
2021/08/14 03:15:32;;;;;;;14.30;6.33;;;;;;;16.71;78.27;97204.16;2595860;54;21068;-75
2021/08/14 03:18:03;;;;;;;13.10;6.10;;;;;;;16.69;78.79;97214.88;2596533;36;20423;-76
2021/08/14 03:20:32;;;;;;;10.37;6.60;;;;;;;16.52;79.07;97210.16;2595483;54;20921;-76
2021/08/14 03:23:04;;;;;;;10.57;6.17;;;;;;;16.57;79.13;97210.63;2594713;31;21059;-77
2021/08/14 03:25:33;;;;;;;13.30;6.60;;;;;;;16.54;79.30;97205.56;2594581;54;20426;-76
2021/08/14 03:28:05;;;;;;;10.30;6.77;;;;;;;16.31;80.35;97199.56;2594905;36;20907;-77
2021/08/14 03:30:35;;;;;;;15.33;6.40;;;;;;;16.33;80.51;97200.28;2595221;39;20771;-75
2021/08/14 03:33:05;;;;;;;9.27;6.40;;;;;;;16.44;79.60;97202.03;2594636;36;20466;-75
2021/08/14 03:35:35;;;;;;;11.63;6.40;;;;;;;16.35;79.03;97209.75;2595140;54;20961;-76
2021/08/14 03:38:04;;;;;;;12.13;6.30;;;;;;;16.39;79.51;97203.25;2594990;36;20526;-75
2021/08/14 03:40:34;;;;;;;11.63;7.90;;;;;;;16.40;79.37;97204.91;2597681;54;20418;-78
2021/08/14 03:43:06;;;;;;;14.83;7.23;;;;;;;16.40;79.10;97196.16;2595746;36;20435;-75
2021/08/14 03:45:36;;;;;;;12.83;6.87;;;;;;;16.43;78.98;97206.47;2596044;39;20790;-76
2021/08/14 03:48:07;;;;;;;10.20;6.33;;;;;;;16.33;78.84;97197.63;2594962;36;21378;-76
2021/08/14 03:50:36;;;;;;;11.13;6.73;;;;;;;16.24;79.63;97191.28;2594863;54;20482;-75
2021/08/14 03:53:06;;;;;;;11.73;7.27;;;;;;;16.19;79.76;97193.47;2595088;36;21164;-75
2021/08/14 03:55:36;;;;;;;11.77;7.13;;;;;;;16.10;80.77;97187.16;2595268;54;20441;-76
2021/08/14 03:58:08;;;;;;;10.87;7.50;;;;;;;16.20;80.70;97189.88;2595209;36;20435;-73
2021/08/14 04:00:38;;;;;;;13.63;6.93;;;;;;;16.31;80.43;97192.47;2594990;39;20882;-73
2021/08/14 04:03:07;;;;;;;16.00;7.20;;;;;;;16.38;80.10;97193.63;2595821;31;20793;-74
2021/08/14 04:05:38;;;;;;;18.33;7.13;;;;;;;16.33;79.61;97190.53;2595481;54;20417;-75
2021/08/14 04:08:08;;;;;;;8.27;6.33;;;;;;;16.27;80.27;97193.69;2594572;36;20415;-74
2021/08/14 04:10:37;;;;;;;15.30;8.60;;;;;;;16.20;80.22;97190.69;2595753;54;20457;-72
2021/08/14 04:13:08;;;;;;;13.80;8.30;;;;;;;16.13;80.98;97199.25;2595069;36;20423;-76
2021/08/14 04:15:40;;;;;;;10.03;7.33;;;;;;;16.17;80.54;97198.03;2594649;54;20419;-74
2021/08/14 04:18:11;;;;;;;13.03;8.20;;;;;;;16.21;80.23;97189.75;2595962;36;20453;-75
2021/08/14 04:20:41;;;;;;;9.50;7.07;;;;;;;16.26;80.43;97199.94;2594283;47;20426;-75
2021/08/14 04:23:14;;;;;;;9.90;6.93;;;;;;;16.22;80.48;97190.59;2594540;36;21312;-78
2021/08/14 04:25:44;;;;;;;17.30;7.50;;;;;;;16.27;80.53;97190.19;2594605;54;20431;-75
2021/08/14 04:28:16;;;;;;;13.23;8.00;;;;;;;16.12;80.75;97184.38;2595019;36;20726;-75
2021/08/14 04:30:46;;;;;;;14.27;7.87;;;;;;;16.22;79.81;97190.59;2594951;39;20814;-74
2021/08/14 04:33:19;;;;;;;11.20;7.37;;;;;;;16.28;80.28;97194.53;2594094;36;20410;-75
2021/08/14 04:35:49;;;;;;;11.27;7.30;;;;;;;16.31;80.01;97191.66;2595966;31;20795;-75
2021/08/14 04:38:19;;;;;;;9.77;6.23;;;;;;;16.19;80.68;97190.81;2595001;36;20803;-74
2021/08/14 04:40:49;;;;;;;11.00;6.90;;;;;;;16.30;80.58;97185.50;2595231;54;20403;-74
2021/08/14 04:43:20;;;;;;;13.53;7.87;;;;;;;16.51;79.24;97188.16;2595906;36;20473;-74
2021/08/14 04:45:50;;;;;;;13.80;7.23;;;;;;;16.39;79.68;97189.19;2596110;54;20462;-73
2021/08/14 04:48:20;;;;;;;13.30;6.90;;;;;;;16.37;79.84;97186.69;2595923;31;20455;-73
2021/08/14 04:50:49;;;;;;;10.50;6.83;;;;;;;16.45;80.19;97185.22;2595710;54;20434;-73
2021/08/14 04:53:19;;;;;;;15.33;8.03;;;;;;;16.34;81.60;97181.63;2595391;36;20546;-73
2021/08/14 04:55:50;;;;;;;15.30;7.47;;;;;;;16.24;81.30;97190.47;2595125;54;20997;-74
2021/08/14 04:58:21;;;;;;;17.13;7.33;;;;;;;16.28;81.76;97190.06;2595303;31;20507;-74
2021/08/14 05:00:51;;;;;;;12.90;6.40;;;;;;;16.44;80.82;97192.28;2595666;54;21025;-75
2021/08/14 05:03:25;;;;;;;11.83;7.13;;;;;;;16.39;80.94;97191.84;2596313;31;20981;-74
2021/08/14 05:05:55;;;;;;;10.57;6.70;;;;;;;16.40;80.15;97199.63;2595178;39;20813;-74
2021/08/14 05:08:26;;;;;;;17.73;6.60;;;;;;;16.11;78.81;97195.91;2594494;36;20770;-78
2021/08/14 05:10:56;;;;;;;10.40;6.10;;;;;;;16.24;78.83;97193.94;2594995;54;21000;-75
2021/08/14 05:13:27;;;;;;;8.83;5.90;;;;;;;16.59;79.21;97203.41;2594808;36;20442;-75
2021/08/14 05:15:57;;;;;;;13.07;6.97;;;;;;;16.76;78.56;97205.47;2595510;54;21440;-74
2021/08/14 05:18:27;;;;;;;10.17;6.37;;;;;;;16.77;78.45;97204.47;2594422;36;20418;-74
2021/08/14 05:20:57;;;;;;;11.20;6.50;;;;;;;16.72;78.85;97204.03;2594857;54;20503;-74
2021/08/14 05:23:27;;;;;;;14.57;7.57;;;;;;;16.68;78.09;97205.28;2594732;36;20957;-75
2021/08/14 05:25:56;;;;;;;14.23;6.30;;;;;;;16.30;78.28;97206.63;2597310;54;21001;-75
2021/08/14 05:28:28;;;;;;;17.17;7.77;;;;;;;16.21;79.22;97200.31;2594878;36;21036;-76
2021/08/14 05:30:58;;;;;;;11.93;7.10;;;;;;;16.65;78.61;97204.69;2595248;54;20954;-75
2021/08/14 05:33:28;;;;;;;14.83;6.87;;;;;;;16.93;78.20;97206.69;2595807;36;20406;-74
2021/08/14 05:35:58;;;;;;;12.80;7.20;;;;;;;17.17;78.86;97201.13;2595375;54;20415;-77
2021/08/14 05:38:28;;;;;;;19.43;7.77;;;;;;;17.18;79.12;97205.44;2597087;36;21175;-77
2021/08/14 05:40:58;;;;;;;20.17;7.07;;;;;;;17.32;75.67;97208.72;2594931;54;20422;-73
2021/08/14 05:43:29;;;;;;;13.53;6.90;;;;;;;17.47;75.89;97204.72;2601163;31;20418;-73
2021/08/14 05:45:59;;;;;;;13.70;6.70;;;;;;;17.73;74.67;97205.06;2595608;54;20973;-73
2021/08/14 05:48:29;;;;;;;15.13;7.77;;;;;;;17.57;75.84;97202.94;2595324;31;21241;-74
2021/08/14 05:50:59;;;;;;;14.57;7.83;;;;;;;17.72;76.44;97206.06;2594655;54;20925;-75
2021/08/14 05:53:29;;;;;;;10.20;6.83;;;;;;;18.00;74.69;97201.00;2594729;36;20558;-76
2021/08/14 05:55:59;;;;;;;8.93;5.97;;;;;;;18.25;74.78;97206.72;2594092;54;21277;-76
2021/08/14 05:58:30;;;;;;;11.30;6.80;;;;;;;18.06;74.92;97197.78;2595708;36;20823;-75
2021/08/14 06:01:00;;;;;;;7.40;5.90;;;;;;;17.98;76.39;97209.06;2594582;54;20375;-75
2021/08/14 06:03:36;;;;;;;9.47;6.50;;;;;;;18.18;76.29;97201.16;2594685;36;21330;-75
2021/08/14 06:06:06;;;;;;;12.70;7.83;;;;;;;18.77;73.74;97202.78;2593742;54;20492;-76
2021/08/14 06:08:36;;;;;;;9.17;6.43;;;;;;;18.67;73.93;97204.63;2593455;36;20443;-75
2021/08/14 06:11:06;;;;;;;10.33;7.20;;;;;;;18.98;73.42;97207.13;2594527;31;20919;-76
2021/08/14 06:13:38;;;;;;;13.33;7.23;;;;;;;19.40;71.75;97203.22;2594563;36;20399;-76
2021/08/14 06:16:09;;;;;;;10.43;6.93;;;;;;;19.37;71.71;97209.66;2594694;54;20414;-75
2021/08/14 06:18:41;;;;;;;13.43;6.67;;;;;;;19.55;71.64;97213.22;2558965;54;2004226;-75
2021/08/14 06:21:11;;;;;;;10.27;7.33;;;;;;;19.07;73.48;97208.94;2595498;36;20826;-75
2021/08/14 06:23:41;;;;;;;11.13;6.77;;;;;;;19.70;70.89;97207.44;2595072;39;20767;-75
2021/08/14 06:26:11;;;;;;;13.83;7.53;;;;;;;19.68;71.78;97207.56;2595382;31;20767;-75
2021/08/14 06:28:42;;;;;;;10.80;7.23;;;;;;;20.10;70.26;97206.22;2595188;54;20550;-75
2021/08/14 06:31:12;;;;;;;12.97;8.00;;;;;;;19.81;71.88;97203.75;2593655;36;20732;-75
2021/08/14 06:33:42;;;;;;;12.67;7.50;;;;;;;20.04;70.91;97201.50;2594802;54;20890;-75
2021/08/14 06:36:12;;;;;;;14.40;8.30;;;;;;;20.27;71.28;97200.09;2595897;36;20450;-76
2021/08/14 06:38:42;;;;;;;15.10;6.80;;;;;;;20.71;69.68;97202.81;2594683;47;20427;-76
2021/08/14 06:41:12;;;;;;;14.40;6.10;;;;;;;20.83;69.61;97203.41;2596539;36;21129;-76
2021/08/14 06:43:44;;;;;;;8.93;6.07;;;;;;;21.28;69.13;97199.69;2597234;54;21025;-76
2021/08/14 06:46:14;;;;;;;11.07;7.07;;;;;;;21.69;67.77;97191.91;2596386;36;21235;-76
2021/08/14 06:48:44;;;;;;;12.23;7.23;;;;;;;21.12;69.09;97202.28;2596240;39;20850;-76
2021/08/14 06:51:23;;;;;;;16.93;7.27;;;;;;;21.43;68.65;97207.97;2617961;36;21226;-76
2021/08/14 06:54:20;;;;;;;19.23;7.77;;;;;;;21.41;67.15;97198.44;2622177;46;20415;-76
2021/08/14 06:57:27;;;;;;;;;;;;;;;;;;;;;
2021/08/14 07:00:16;;;;;;;10.23;7.07;;;;;;;22.42;64.47;97189.59;2609099;54;20391;-76
2021/08/14 07:02:48;;;;;;;13.97;7.40;;;;;;;22.51;63.79;97189.44;2598112;36;20973;-73
2021/08/14 07:09:14;;;;;;;13.37;7.00;;;;;;;22.47;64.99;97192.63;2587567;54;2003852;-73
2021/08/14 07:12:04;;;;;;;10.70;7.40;;;;;;;22.79;63.78;97189.09;2639654;36;20437;-75
2021/08/14 07:15:06;;;;;;;;;;;;;;;;;;;;;
2021/08/14 07:17:48;;;;;;;9.53;6.50;;;;;;;22.90;62.77;97194.09;2617190;36;20415;-74
2021/08/14 07:20:28;;;;;;;10.70;5.67;;;;;;;23.56;61.73;97198.47;2619642;54;20410;-74
2021/08/14 07:23:00;;;;;;;15.07;6.37;;;;;;;23.77;60.85;97185.34;2622720;36;20430;-74
2021/08/14 07:25:31;;;;;;;9.30;6.23;;;;;;;24.00;58.62;97181.94;2597718;54;20996;-74
2021/08/14 07:28:07;;;;;;;10.20;6.13;;;;;;;24.24;58.64;97179.09;2596897;36;20488;-73
2021/08/14 07:30:47;;;;;;;12.27;5.93;;;;;;;24.52;57.83;97189.34;2597534;54;20403;-73
2021/08/14 07:33:19;;;;;;;13.63;6.17;;;;;;;24.65;55.37;97183.34;2596786;36;20818;-73
2021/08/14 07:35:50;;;;;;;46.57;30.87;;;;;;;25.59;53.25;97178.41;2597454;54;20445;-73
2021/08/14 07:38:20;;;;;;;10.13;7.40;;;;;;;25.97;52.67;97178.28;2641711;36;20480;-74
2021/08/14 07:40:51;;;;;;;16.37;6.80;;;;;;;26.17;52.66;97178.50;2596176;54;21318;-74
2021/08/14 07:43:21;;;;;;;10.17;7.23;;;;;;;26.14;51.98;97183.41;2599387;31;20438;-74
2021/08/14 07:45:51;;;;;;;9.47;5.63;;;;;;;26.48;51.24;97180.03;2599613;54;20522;-73
2021/08/14 07:48:22;;;;;;;10.00;5.20;;;;;;;26.49;50.10;97179.03;2597100;36;20426;-74
2021/08/14 07:50:52;;;;;;;6.83;5.43;;;;;;;25.90;51.71;97176.50;2598072;54;20465;-74
2021/08/14 07:53:24;;;;;;;8.90;6.73;;;;;;;26.76;50.28;97165.88;2598029;36;21312;-73
2021/08/14 07:55:54;;;;;;;7.17;5.03;;;;;;;26.73;49.69;97176.97;2596860;39;21225;-73
2021/08/14 07:58:25;;;;;;;9.93;6.10;;;;;;;26.42;51.71;97168.22;2596188;36;21253;-74
2021/08/14 08:00:57;;;;;;;9.63;5.80;;;;;;;26.04;51.12;97173.81;2597260;54;20449;-73
2021/08/14 08:03:28;;;;;;;9.43;5.60;;;;;;;26.37;51.04;97164.47;2596362;36;20961;-73
2021/08/14 08:06:01;;;;;;;11.77;6.50;;;;;;;26.46;51.70;97171.34;2597906;47;20445;-74
2021/08/14 08:08:30;;;;;;;8.37;5.70;;;;;;;26.56;49.18;97173.69;2600349;31;20843;-74
2021/08/14 08:11:01;;;;;;;8.47;5.37;;;;;;;26.88;49.07;97172.38;2596915;54;20445;-73
2021/08/14 08:13:33;;;;;;;7.93;5.43;;;;;;;26.31;50.42;97162.53;2598231;36;20946;-73
2021/08/14 08:16:07;;;;;;;7.23;5.20;;;;;;;26.51;49.84;97168.91;2596620;47;20429;-75
2021/08/14 08:18:38;;;;;;;9.13;5.57;;;;;;;26.43;50.18;97169.88;2599171;36;20418;-75
2021/08/14 08:21:08;;;;;;;8.87;5.60;;;;;;;26.43;51.65;97167.19;2598172;54;20430;-74
2021/08/14 08:23:38;;;;;;;10.67;5.83;;;;;;;26.51;51.04;97165.41;2600486;36;20430;-75
2021/08/14 08:26:08;;;;;;;9.67;4.93;;;;;;;26.25;52.00;97158.75;2599365;54;20442;-74
2021/08/14 08:28:38;;;;;;;7.67;4.60;;;;;;;26.40;48.40;97164.06;2601407;36;20427;-75
2021/08/14 08:31:08;;;;;;;15.30;5.83;;;;;;;26.58;47.37;97164.47;2598859;54;21153;-74
2021/08/14 08:33:41;;;;;;;8.80;5.23;;;;;;;26.68;46.44;97157.94;2600002;36;20787;-74
2021/08/14 08:36:21;;;;;;;10.67;5.30;;;;;;;26.79;44.48;97157.41;2599836;47;20407;-74
2021/08/14 08:38:51;;;;;;;10.53;5.50;;;;;;;27.06;42.20;97155.75;2597938;36;21267;-74
2021/08/14 08:41:26;;;;;;;8.37;5.33;;;;;;;27.58;43.82;97154.44;2598916;54;21246;-74
2021/08/14 08:43:56;;;;;;;10.93;5.33;;;;;;;27.52;44.57;97157.91;2598272;36;20973;-75
2021/08/14 08:46:29;;;;;;;7.53;5.47;;;;;;;27.62;44.55;97152.16;2597633;39;20494;-74
2021/08/14 08:49:02;;;;;;;8.77;5.30;;;;;;;26.90;45.01;97151.50;2598763;36;20457;-74
2021/08/14 08:51:33;;;;;;;9.60;5.10;;;;;;;26.68;46.81;97147.19;2598624;54;21806;-75
2021/08/14 08:54:06;;;;;;;7.90;5.10;;;;;;;27.41;45.15;97145.84;2601985;36;21132;-74
2021/08/14 08:56:37;;;;;;;12.50;5.80;;;;;;;27.15;45.56;97145.69;2600298;47;21021;-74
2021/08/14 08:59:09;;;;;;;6.97;5.30;;;;;;;27.80;45.96;97148.94;2597818;36;21370;-73
2021/08/14 09:01:40;;;;;;;14.70;6.33;;;;;;;27.82;45.65;97146.88;2602446;54;20430;-73
2021/08/14 09:04:33;;;;;;;10.23;5.80;;;;;;;27.67;46.21;97148.88;2605597;36;20434;-73
2021/08/14 09:07:03;;;;;;;8.43;5.93;;;;;;;27.16;46.81;97139.28;2599873;54;20506;-74
2021/08/14 09:09:42;;;;;;;7.00;5.37;;;;;;;27.83;45.31;97145.00;2602590;36;21077;-74
2021/08/14 09:12:14;;;;;;;9.23;6.27;;;;;;;26.54;47.45;97140.84;2600059;47;20934;-74
2021/08/14 09:14:49;;;;;;;14.60;5.50;;;;;;;27.11;46.79;97144.41;2600236;36;21013;-75
2021/08/14 09:17:20;;;;;;;10.63;5.63;;;;;;;27.51;47.13;97142.78;2596813;54;20413;-75
2021/08/14 09:19:53;;;;;;;32.03;17.07;;;;;;;28.03;44.49;97128.94;2598149;36;20489;-75
2021/08/14 09:22:26;;;;;;;8.20;6.17;;;;;;;28.44;44.14;97131.47;2597054;54;20933;-75
2021/08/14 09:24:56;;;;;;;11.10;6.43;;;;;;;28.48;43.96;97130.06;2598479;36;20414;-75
2021/08/14 09:27:26;;;;;;;11.00;6.00;;;;;;;28.43;44.94;97140.59;2597033;54;20419;-75
2021/08/14 09:29:56;;;;;;;10.00;5.90;;;;;;;28.32;44.65;97138.50;2595677;36;20518;-74
2021/08/14 09:32:28;;;;;;;12.63;5.97;;;;;;;28.86;43.59;97134.84;2597338;54;20910;-75
2021/08/14 09:34:59;;;;;;;7.67;6.20;;;;;;;28.78;42.92;97135.88;2596667;36;20414;-75
2021/08/14 09:37:38;;;;;;;11.03;5.17;;;;;;;28.87;43.80;97131.09;2597046;54;20440;-75
2021/08/14 09:40:10;;;;;;;8.83;6.00;;;;;;;28.94;43.45;97134.63;2597136;36;20422;-74
2021/08/14 09:42:52;;;;;;;10.93;5.70;;;;;;;28.99;42.00;97133.97;2599454;54;20435;-75
2021/08/14 09:45:23;;;;;;;12.10;6.63;;;;;;;28.01;45.41;97123.75;2598120;36;20450;-74
2021/08/14 09:47:53;;;;;;;7.37;5.63;;;;;;;28.87;43.53;97128.41;2596872;54;20443;-74
2021/08/14 09:50:37;;;;;;;11.03;5.97;;;;;;;28.94;42.82;97117.63;2596703;36;20427;-75
2021/08/14 09:53:16;;;;;;;8.80;5.57;;;;;;;28.98;41.62;97111.59;2596821;36;20454;-74
2021/08/14 09:55:49;;;;;;;9.00;5.80;;;;;;;28.65;43.33;97114.31;2596023;47;20462;-74
2021/08/14 09:58:24;;;;;;;12.30;5.40;;;;;;;28.82;44.63;97112.03;2596337;31;20524;-75
2021/08/14 10:00:55;;;;;;;11.67;5.80;;;;;;;29.35;42.78;97097.66;2598228;54;20405;-75
2021/08/14 10:03:26;;;;;;;10.00;6.30;;;;;;;29.20;42.54;97100.59;2599042;36;20426;-74
2021/08/14 10:05:58;;;;;;;15.13;5.50;;;;;;;29.07;43.19;97095.19;2597249;54;20926;-74
2021/08/14 10:08:29;;;;;;;8.13;5.73;;;;;;;29.18;42.37;97092.72;2596854;36;20415;-74
2021/08/14 10:11:00;;;;;;;10.20;6.03;;;;;;;28.81;42.79;97096.09;2602023;46;20419;-74
2021/08/14 10:13:32;;;;;;;12.33;6.53;;;;;;;29.60;41.70;97092.38;2599341;36;20418;-75
2021/08/14 10:16:02;;;;;;;10.73;5.83;;;;;;;29.31;42.23;97091.84;2596869;31;20894;-73
2021/08/14 10:18:35;;;;;;;9.67;6.40;;;;;;;30.29;39.38;97084.50;2601244;36;20961;-74
2021/08/14 10:21:11;;;;;;;10.43;5.90;;;;;;;30.26;39.96;97090.34;2605365;47;20899;-75
2021/08/14 10:23:42;;;;;;;11.70;6.10;;;;;;;29.73;40.52;97086.09;2597879;36;20429;-75
2021/08/14 10:26:15;;;;;;;8.20;6.33;;;;;;;31.52;38.81;97078.38;2599597;54;21041;-74
2021/08/14 10:28:47;;;;;;;10.60;5.63;;;;;;;32.26;36.00;97078.19;2598573;36;21267;-74
2021/08/14 10:31:50;;;;;;;11.43;6.23;;;;;;;32.18;35.80;97069.59;2598274;39;21189;-74
2021/08/14 10:34:38;;;;;;;11.27;6.40;;;;;;;32.39;35.95;97071.75;2597407;36;20446;-74
2021/08/14 10:37:38;;;;;;;14.60;5.37;;;;;;;31.71;36.29;97068.34;2596822;54;21227;-75
2021/08/14 10:40:10;;;;;;;10.60;5.50;;;;;;;31.89;37.08;97066.63;2597063;36;21038;-75
2021/08/14 10:42:59;;;;;;;7.83;5.67;;;;;;;32.57;35.38;97070.03;2602446;54;20430;-74
2021/08/14 10:45:38;;;;;;;8.97;5.30;;;;;;;32.31;36.80;97062.06;2597494;36;20781;-75
2021/08/14 10:48:09;;;;;;;8.10;5.70;;;;;;;31.00;40.47;97052.75;2599039;36;20433;-74
2021/08/14 10:50:55;;;;;;;14.10;5.80;;;;;;;32.50;38.12;97070.09;2599770;54;20427;-74
2021/08/14 10:53:25;;;;;;;7.50;5.43;;;;;;;33.75;36.01;97053.59;2602055;31;20422;-75
2021/08/14 10:55:58;;;;;;;7.00;5.30;;;;;;;34.18;33.75;97055.78;2597596;54;20443;-75
2021/08/14 10:58:32;;;;;;;7.97;5.50;;;;;;;33.86;34.22;97052.75;2597368;36;20761;-74
2021/08/14 11:01:33;;;;;;;9.70;5.23;;;;;;;34.56;33.17;97047.94;2599196;47;20974;-74
2021/08/14 11:04:34;;;;;;;6.17;4.83;;;;;;;33.39;34.42;97047.47;2597919;36;20458;-74
2021/08/14 11:07:32;;;;;;;8.53;4.80;;;;;;;33.94;34.14;97044.19;2598551;39;20459;-74
2021/08/14 11:10:31;;;;;;;7.60;5.10;;;;;;;33.12;34.67;97047.16;2596899;36;20762;-74
2021/08/14 11:13:02;;;;;;;6.97;5.00;;;;;;;33.34;33.70;97039.22;2598496;54;20929;-74
2021/08/14 11:15:41;;;;;;;12.20;5.17;;;;;;;33.85;34.54;97042.94;2561643;54;2004290;-74
2021/08/14 11:18:11;;;;;;;6.83;5.20;;;;;;;34.11;32.87;97024.38;2595374;36;20584;-73
2021/08/14 11:20:42;;;;;;;7.93;5.60;;;;;;;35.04;31.33;97022.03;2597749;54;21219;-74
2021/08/14 11:23:27;;;;;;;7.10;5.30;;;;;;;35.47;29.82;97023.13;2597728;36;20383;-74
2021/08/14 11:25:57;;;;;;;9.77;5.70;;;;;;;30.20;39.91;97027.22;2596204;54;20414;-74
2021/08/14 11:28:29;;;;;;;13.47;6.20;;;;;;;32.67;35.84;97038.56;2597110;36;20442;-74
2021/08/14 11:31:04;;;;;;;10.47;5.67;;;;;;;32.45;36.41;97032.88;2603325;54;20427;-74
2021/08/14 11:33:34;;;;;;;8.93;5.70;;;;;;;33.22;35.14;97021.06;2598579;31;20813;-74
2021/08/14 11:36:07;;;;;;;6.80;5.07;;;;;;;32.61;38.74;97020.53;2598593;54;20379;-74
2021/08/14 11:38:39;;;;;;;7.10;5.37;;;;;;;31.28;39.06;97019.75;2598477;36;20410;-74
2021/08/14 11:41:14;;;;;;;11.17;6.00;;;;;;;33.60;37.48;97008.81;2597318;31;20844;-74
2021/08/14 11:43:45;;;;;;;9.50;5.17;;;;;;;35.08;34.24;97016.91;2597343;36;20426;-75
2021/08/14 11:46:16;;;;;;;7.77;5.47;;;;;;;35.24;32.55;97003.28;2597349;39;20747;-74
2021/08/14 11:48:52;;;;;;;7.77;5.30;;;;;;;35.73;33.80;97004.38;2596637;36;20417;-75
2021/08/14 11:51:23;;;;;;;7.90;5.57;;;;;;;36.52;31.77;97009.16;2597903;54;20929;-74
2021/08/14 11:54:09;;;;;;;6.17;4.93;;;;;;;34.95;31.25;97001.78;2596461;36;20550;-74
2021/08/14 11:56:42;;;;;;;8.03;4.97;;;;;;;34.43;33.67;97005.63;2597628;39;20759;-74